Terminal Aerodrome Forecast
Issued by NWS

Home | Current Version | Previous Version | Text Only | Print | Product List | Glossary On
Versions: 1 2 3 4 5 6 7 8 9 10 11 12
743
FTUS44 KBMX 071720
TAFTCL
TAF
KTCL 071720Z 0718/0818 23006KT P6SM SCT250
     FM080900 22004KT P6SM BKN040 BKN150
     FM081500 28013G20KT P6SM BKN050=

USA.gov is the U.S. government's official web portal to all federal, state and local government web resources and services.